createdAt,value
2022-12-18T00:01:28.610Z,22.53
2022-12-18T00:03:56.513Z,25.33
2022-12-18T00:06:24.344Z,26.20
2022-12-18T00:08:51.973Z,24.27
2022-12-18T00:11:21.731Z,26.97
2022-12-18T00:13:48.792Z,26.20
2022-12-18T00:16:22.237Z,23.47
2022-12-18T00:18:50.723Z,23.10
2022-12-18T00:21:18.135Z,25.10
2022-12-18T00:23:46.230Z,25.57
2022-12-18T00:26:16.815Z,23.47
2022-12-18T00:28:44.572Z,24.50
2022-12-18T00:31:14.008Z,24.50
2022-12-18T00:33:41.657Z,23.70
2022-12-18T00:36:12.767Z,23.10
2022-12-18T00:38:40.599Z,21.40
2022-12-18T00:41:10.536Z,21.67
2022-12-18T00:43:39.262Z,21.77
2022-12-18T00:46:06.731Z,22.13
2022-12-18T00:48:34.001Z,19.70
2022-12-18T00:51:00.705Z,21.10
2022-12-18T00:53:27.460Z,21.37
2022-12-18T00:55:54.172Z,22.07
2022-12-18T00:58:20.959Z,20.73
2022-12-18T01:00:47.777Z,20.20
2022-12-18T01:03:15.243Z,18.20
2022-12-18T01:05:42.980Z,18.13
2022-12-18T01:08:10.247Z,20.23
2022-12-18T01:10:37.121Z,19.00
2022-12-18T01:13:03.938Z,17.20
2022-12-18T01:15:30.712Z,17.53
2022-12-18T01:17:57.815Z,17.67
2022-12-18T01:20:24.561Z,16.90
2022-12-18T01:22:51.296Z,16.53
2022-12-18T01:25:18.022Z,18.47
2022-12-18T01:27:44.761Z,18.87
2022-12-18T01:30:11.970Z,17.17
2022-12-18T01:32:38.737Z,17.23
2022-12-18T01:35:06.376Z,18.47
2022-12-18T01:37:33.326Z,18.50
2022-12-18T01:40:00.091Z,17.83
2022-12-18T01:42:26.897Z,17.07
2022-12-18T01:45:02.764Z,17.03
2022-12-18T01:47:53.283Z,17.37
2022-12-18T01:50:25.725Z,18.23
2022-12-18T01:53:00.160Z,17.52
2022-12-18T01:55:30.537Z,18.03
2022-12-18T01:58:00.192Z,16.77
2022-12-18T02:00:28.784Z,18.13
2022-12-18T02:02:55.657Z,19.10
2022-12-18T02:05:41.021Z,17.97
2022-12-18T02:08:39.743Z,16.57
2022-12-18T02:11:11.365Z,18.57
2022-12-18T02:13:41.415Z,19.13
2022-12-18T02:16:19.878Z,19.50
2022-12-18T02:18:51.288Z,17.57
2022-12-18T02:21:36.236Z,18.37
2022-12-18T02:24:15.043Z,15.87
2022-12-18T02:26:54.841Z,15.73
2022-12-18T02:29:30.578Z,15.10
2022-12-18T02:32:00.144Z,15.27
2022-12-18T02:34:32.320Z,15.00
2022-12-18T02:37:01.850Z,14.20
2022-12-18T02:39:31.633Z,13.87
2022-12-18T02:42:00.376Z,15.27
2022-12-18T02:44:27.323Z,13.80
2022-12-18T02:46:55.375Z,15.10
2022-12-18T02:49:30.739Z,14.77
2022-12-18T02:52:29.676Z,15.10
2022-12-18T02:55:02.520Z,15.20
2022-12-18T02:57:36.335Z,15.53
2022-12-18T03:00:11.314Z,17.70
2022-12-18T03:03:00.535Z,15.20
2022-12-18T03:05:57.512Z,16.27
2022-12-18T03:08:28.211Z,17.50
2022-12-18T03:11:04.564Z,16.53
2022-12-18T03:13:52.735Z,15.73
2022-12-18T03:16:26.873Z,15.03
2022-12-18T03:18:58.314Z,15.93
2022-12-18T03:21:32.949Z,15.90
2022-12-18T03:24:00.657Z,16.33
2022-12-18T03:26:28.804Z,17.00
2022-12-18T03:29:10.742Z,15.10
2022-12-18T03:31:40.571Z,15.43
2022-12-18T03:34:14.311Z,15.20
2022-12-18T03:36:41.427Z,15.17
2022-12-18T03:39:08.231Z,14.70
2022-12-18T03:41:39.449Z,15.03
2022-12-18T03:44:22.992Z,15.33
2022-12-18T03:46:55.767Z,15.57
2022-12-18T03:49:48.891Z,16.02
2022-12-18T03:52:24.938Z,15.32
2022-12-18T03:54:54.937Z,15.17
2022-12-18T03:57:25.704Z,15.67
2022-12-18T03:59:57.507Z,14.73
2022-12-18T04:02:25.916Z,15.17
2022-12-18T04:05:01.481Z,14.87
2022-12-18T04:07:28.987Z,15.37
2022-12-18T04:09:59.127Z,14.47
2022-12-18T04:12:29.619Z,14.60
2022-12-18T04:14:56.474Z,15.53
2022-12-18T04:17:23.519Z,14.60
2022-12-18T04:19:50.502Z,14.67
2022-12-18T04:22:17.463Z,15.10
2022-12-18T04:24:44.195Z,16.80
2022-12-18T04:27:10.913Z,13.93
2022-12-18T04:29:37.660Z,15.23
2022-12-18T04:32:04.892Z,15.77
2022-12-18T04:34:31.620Z,15.13
2022-12-18T04:36:58.384Z,15.40
2022-12-18T04:39:25.218Z,14.50
2022-12-18T04:41:52.484Z,14.10
2022-12-18T04:44:19.289Z,13.73
2022-12-18T04:46:46.119Z,14.50
2022-12-18T04:49:13.360Z,15.07
2022-12-18T04:51:40.271Z,13.77
2022-12-18T04:54:07.017Z,14.77
2022-12-18T04:56:33.779Z,16.50
2022-12-18T04:59:00.516Z,17.47
2022-12-18T05:01:34.102Z,15.33
2022-12-18T05:04:02.362Z,14.27
2022-12-18T05:06:29.363Z,14.03
2022-12-18T05:08:56.381Z,14.00
2022-12-18T05:11:23.212Z,14.00
2022-12-18T05:13:50.280Z,14.53
2022-12-18T05:16:17.291Z,13.37
2022-12-18T05:18:44.151Z,14.30
2022-12-18T05:21:10.897Z,14.43
2022-12-18T05:23:38.479Z,15.47
2022-12-18T05:26:06.737Z,15.33
2022-12-18T05:28:35.405Z,13.67
2022-12-18T05:31:05.936Z,14.13
2022-12-18T05:33:35.348Z,14.43
2022-12-18T05:36:03.571Z,13.57
2022-12-18T05:38:32.815Z,14.03
2022-12-18T05:40:59.593Z,14.40
2022-12-18T05:43:27.522Z,13.97
2022-12-18T05:45:54.996Z,13.67
2022-12-18T05:48:22.510Z,13.07
2022-12-18T05:50:51.102Z,12.20
2022-12-18T05:53:20.546Z,12.60
2022-12-18T05:55:48.044Z,13.50
2022-12-18T05:58:15.806Z,12.77
2022-12-18T06:00:45.001Z,12.17
2022-12-18T06:03:13.418Z,12.60
2022-12-18T06:05:45.391Z,11.77
2022-12-18T06:08:13.637Z,12.10
2022-12-18T06:10:41.267Z,11.23
2022-12-18T06:13:08.580Z,10.90
2022-12-18T06:15:38.185Z,10.87
2022-12-18T06:18:05.114Z,11.07
2022-12-18T06:20:33.623Z,11.57
2022-12-18T06:23:01.128Z,11.33
2022-12-18T06:25:27.908Z,10.97
2022-12-18T06:27:54.748Z,11.47
2022-12-18T06:30:21.756Z,10.83
2022-12-18T06:32:53.198Z,11.37
2022-12-18T06:35:23.919Z,11.80
2022-12-18T06:37:50.742Z,11.03
2022-12-18T06:40:17.672Z,11.53
2022-12-18T06:42:44.429Z,11.37
2022-12-18T06:45:12.317Z,11.90
2022-12-18T06:47:39.110Z,11.07
2022-12-18T06:50:06.566Z,11.93
2022-12-18T06:52:34.470Z,10.50
2022-12-18T06:55:01.426Z,10.93
2022-12-18T06:57:29.124Z,10.63
2022-12-18T06:59:55.856Z,10.13
2022-12-18T07:02:22.613Z,11.80
2022-12-18T07:04:49.399Z,11.50
2022-12-18T07:07:16.186Z,12.33
2022-12-18T07:09:42.946Z,11.63
2022-12-18T07:12:09.668Z,11.17
2022-12-18T07:14:36.415Z,11.87
2022-12-18T07:17:03.220Z,12.47
2022-12-18T07:19:30.617Z,13.07
2022-12-18T07:21:57.973Z,12.50
2022-12-18T07:24:24.697Z,11.87
2022-12-18T07:26:51.466Z,13.20
2022-12-18T07:29:18.265Z,12.50
2022-12-18T07:31:45.519Z,13.43
2022-12-18T07:34:16.199Z,14.27
2022-12-18T07:36:43.765Z,13.63
2022-12-18T07:39:12.313Z,13.77
2022-12-18T07:41:45.192Z,12.03
2022-12-18T07:44:13.681Z,11.83
2022-12-18T07:46:40.610Z,12.90
2022-12-18T07:49:07.686Z,13.10
2022-12-18T07:51:34.422Z,12.77
2022-12-18T07:54:01.153Z,12.27
2022-12-18T07:56:29.604Z,12.70
2022-12-18T07:58:57.549Z,13.17
2022-12-18T08:01:25.253Z,12.70
2022-12-18T08:03:52.651Z,12.70
2022-12-18T08:06:22.386Z,11.60
2022-12-18T08:08:55.422Z,12.60
2022-12-18T08:11:23.325Z,12.47
2022-12-18T08:13:50.073Z,12.10
2022-12-18T08:16:16.997Z,11.53
2022-12-18T08:18:43.804Z,12.97
2022-12-18T08:21:11.275Z,13.50
2022-12-18T08:23:42.734Z,11.93
2022-12-18T08:26:12.028Z,11.55
2022-12-18T08:28:39.332Z,12.63
2022-12-18T08:31:06.385Z,13.27
2022-12-18T08:33:34.382Z,13.67
2022-12-18T08:36:02.057Z,12.33
2022-12-18T08:38:29.398Z,13.40
2022-12-18T08:41:10.953Z,12.37
2022-12-18T08:43:56.374Z,12.30
2022-12-18T08:46:25.533Z,12.33
2022-12-18T08:48:54.054Z,13.87
2022-12-18T08:51:21.019Z,12.03
2022-12-18T08:53:48.294Z,13.57
2022-12-18T08:56:15.490Z,11.57
2022-12-18T08:58:42.706Z,12.87
2022-12-18T09:01:11.300Z,11.40
2022-12-18T09:03:38.799Z,11.70
2022-12-18T09:06:06.360Z,12.63
2022-12-18T09:08:35.894Z,12.63
2022-12-18T09:11:02.637Z,12.97
2022-12-18T09:13:29.755Z,12.97
2022-12-18T09:15:56.926Z,12.77
2022-12-18T09:18:25.266Z,12.03
2022-12-18T09:20:53.732Z,12.60
2022-12-18T09:23:21.495Z,12.53
2022-12-18T09:25:48.817Z,12.17
2022-12-18T09:28:18.202Z,11.87
2022-12-18T09:30:47.317Z,11.53
2022-12-18T09:33:14.721Z,11.87
2022-12-18T09:35:43.755Z,12.23
2022-12-18T09:38:14.513Z,12.17
2022-12-18T09:40:45.535Z,11.57
2022-12-18T09:43:21.581Z,10.77
2022-12-18T09:45:53.550Z,11.50
2022-12-18T09:48:26.197Z,11.40
2022-12-18T09:51:00.628Z,11.57
2022-12-18T09:53:31.134Z,10.83
2022-12-18T09:56:01.501Z,10.30
2022-12-18T09:58:34.299Z,11.33
2022-12-18T10:01:01.063Z,11.77
2022-12-18T10:03:28.213Z,11.20
2022-12-18T10:06:14.447Z,12.83
2022-12-18T10:08:58.799Z,12.57
2022-12-18T10:11:25.469Z,12.17
2022-12-18T10:14:07.759Z,11.53
2022-12-18T10:16:37.463Z,10.63
2022-12-18T10:19:38.303Z,10.63
2022-12-18T10:22:26.970Z,12.07
2022-12-18T10:25:02.995Z,11.43
2022-12-18T10:27:30.702Z,11.70
2022-12-18T10:29:58.355Z,13.77
2022-12-18T10:32:30.780Z,13.13
2022-12-18T10:35:02.000Z,14.35
2022-12-18T10:37:30.533Z,12.63
2022-12-18T10:40:21.541Z,12.27
2022-12-18T10:43:05.375Z,11.80
2022-12-18T10:48:01.429Z,12.40
2022-12-18T10:51:09.829Z,11.77
2022-12-18T10:53:28.332Z,11.20
2022-12-18T10:55:58.725Z,12.07
2022-12-18T10:58:30.154Z,10.13
2022-12-18T11:01:17.760Z,11.43
2022-12-18T11:03:47.731Z,12.40
2022-12-18T11:06:17.427Z,11.90
2022-12-18T11:08:57.720Z,11.15
2022-12-18T11:11:25.861Z,11.70
2022-12-18T11:14:13.556Z,11.95
2022-12-18T11:17:23.727Z,11.25
2022-12-18T11:19:40.861Z,11.45
2022-12-18T11:22:41.122Z,11.40
2022-12-18T11:25:36.008Z,10.02
2022-12-18T11:28:27.671Z,10.68
2022-12-18T11:31:18.284Z,11.68
2022-12-18T11:36:50.495Z,10.15
2022-12-18T11:39:31.480Z,9.57
2022-12-18T11:42:10.719Z,9.20
2022-12-18T11:45:09.521Z,9.60
2022-12-18T11:48:02.367Z,9.38
2022-12-18T11:50:40.374Z,8.50
2022-12-18T11:53:12.110Z,9.13
2022-12-18T11:55:53.453Z,10.30
2022-12-18T11:58:42.085Z,9.13
2022-12-18T12:01:17.834Z,9.00
2022-12-18T12:04:02.775Z,8.82
2022-12-18T12:06:53.254Z,9.65
2022-12-18T12:09:36.031Z,9.95
2022-12-18T12:12:25.942Z,9.20
2022-12-18T12:15:06.755Z,9.50
2022-12-18T12:17:45.255Z,9.68
2022-12-18T12:20:26.600Z,9.27
2022-12-18T12:23:39.521Z,9.57
2022-12-18T12:26:14.911Z,9.18
2022-12-18T12:29:01.237Z,9.57
2022-12-18T12:31:56.064Z,8.63
2022-12-18T12:35:07.714Z,9.95
2022-12-18T12:37:50.633Z,8.47
2022-12-18T12:40:50.162Z,9.63
2022-12-18T12:43:26.668Z,9.35
2022-12-18T12:46:15.361Z,7.70
2022-12-18T12:48:53.482Z,8.23
2022-12-18T12:51:27.057Z,7.93
2022-12-18T12:53:57.191Z,7.45
2022-12-18T12:56:28.700Z,8.85
2022-12-18T12:59:00.947Z,9.18
2022-12-18T13:01:46.741Z,8.33
2022-12-18T13:04:22.854Z,8.23
2022-12-18T13:07:01.161Z,8.13
2022-12-18T13:09:32.778Z,8.32
2022-12-18T13:12:29.765Z,8.00
2022-12-18T13:15:23.262Z,9.20
2022-12-18T13:17:50.649Z,8.23
2022-12-18T13:20:17.805Z,9.60
2022-12-18T13:22:47.815Z,7.97
2022-12-18T13:25:34.639Z,8.73
2022-12-18T13:28:13.513Z,8.65
2022-12-18T13:30:40.181Z,8.48
2022-12-18T13:33:15.998Z,7.95
2022-12-18T13:35:48.871Z,8.15
2022-12-18T13:38:37.271Z,7.88
2022-12-18T13:41:16.254Z,7.03
2022-12-18T13:44:00.448Z,6.95
2022-12-18T13:46:42.990Z,7.13
2022-12-18T13:49:23.748Z,7.40
2022-12-18T13:51:52.867Z,7.20
2022-12-18T13:54:22.074Z,7.60
2022-12-18T13:56:49.900Z,6.47
2022-12-18T13:59:24.856Z,7.60
2022-12-18T14:01:56.275Z,7.40
2022-12-18T14:04:35.991Z,7.25
2022-12-18T14:07:11.751Z,7.35
2022-12-18T14:09:47.151Z,8.43
2022-12-18T14:12:55.656Z,7.97
2022-12-18T14:15:34.646Z,7.32
2022-12-18T14:18:23.405Z,7.28
2022-12-18T14:20:53.400Z,8.25
2022-12-18T14:23:41.597Z,7.53
2022-12-18T14:26:30.670Z,7.70
2022-12-18T14:28:59.570Z,7.75
2022-12-18T14:31:29.087Z,7.50
2022-12-18T14:33:56.321Z,7.47
2022-12-18T14:36:25.928Z,7.73
2022-12-18T14:38:58.124Z,8.50
2022-12-18T14:41:26.354Z,8.40
2022-12-18T14:43:55.328Z,9.27
2022-12-18T14:46:37.800Z,9.60
2022-12-18T14:49:34.938Z,8.90
2022-12-18T14:52:07.231Z,9.10
2022-12-18T14:54:38.118Z,9.00
2022-12-18T14:57:25.776Z,10.90
2022-12-18T14:59:52.814Z,10.53
2022-12-18T15:02:25.846Z,10.97
2022-12-18T15:07:28.007Z,10.53
2022-12-18T15:10:03.903Z,11.87
2022-12-18T15:12:45.786Z,11.67
2022-12-18T15:15:34.140Z,12.53
2022-12-18T15:18:02.446Z,16.40
2022-12-18T15:20:33.791Z,11.97
2022-12-18T15:23:00.522Z,19.77
2022-12-18T15:25:38.759Z,25.07
2022-12-18T15:28:20.385Z,19.00
2022-12-18T15:31:04.825Z,13.07
2022-12-18T15:33:34.942Z,11.87
2022-12-18T15:36:10.143Z,12.40
2022-12-18T15:38:37.056Z,12.30
2022-12-18T15:41:04.330Z,13.50
2022-12-18T15:43:37.792Z,13.80
2022-12-18T15:46:16.930Z,14.13
2022-12-18T15:48:48.510Z,15.37
2022-12-18T15:51:21.456Z,14.70
2022-12-18T15:53:50.882Z,15.60
2022-12-18T15:56:36.775Z,15.83
2022-12-18T15:59:05.905Z,14.90
2022-12-18T16:01:32.902Z,16.03
2022-12-18T16:04:00.513Z,14.60
2022-12-18T16:06:30.508Z,16.90
2022-12-18T16:09:03.238Z,15.80
2022-12-18T16:11:44.006Z,14.33
2022-12-18T16:14:29.547Z,14.80
2022-12-18T16:17:00.920Z,15.97
2022-12-18T16:19:28.853Z,15.70
2022-12-18T16:21:57.809Z,16.73
2022-12-18T16:24:26.734Z,13.90
2022-12-18T16:26:54.501Z,16.00
2022-12-18T16:29:28.108Z,17.73
2022-12-18T16:31:56.234Z,16.60
2022-12-18T16:34:29.313Z,16.13
2022-12-18T16:37:05.518Z,16.23
2022-12-18T16:39:34.867Z,14.33
2022-12-18T16:42:06.006Z,16.80
2022-12-18T16:44:34.516Z,16.47
2022-12-18T16:47:02.931Z,18.33
2022-12-18T16:49:31.252Z,16.93
2022-12-18T16:51:58.126Z,16.20
2022-12-18T16:54:25.361Z,18.20
2022-12-18T16:56:52.606Z,19.43
2022-12-18T16:59:19.497Z,17.47
2022-12-18T17:01:47.631Z,16.37
2022-12-18T17:04:15.322Z,18.77
2022-12-18T17:06:44.896Z,15.07
2022-12-18T17:09:16.368Z,18.93
2022-12-18T17:11:43.802Z,16.13
2022-12-18T17:14:14.929Z,18.83
2022-12-18T17:16:42.116Z,17.23
2022-12-18T17:19:16.658Z,16.73
2022-12-18T17:21:45.665Z,15.30
2022-12-18T17:24:12.456Z,17.40
2022-12-18T17:26:39.342Z,18.43
2022-12-18T17:29:06.635Z,16.30
2022-12-18T17:31:34.265Z,17.30
2022-12-18T17:34:04.234Z,17.53
2022-12-18T17:36:32.251Z,17.53
2022-12-18T17:39:01.340Z,18.77
2022-12-18T17:41:29.637Z,17.93
2022-12-18T17:43:58.835Z,18.77
2022-12-18T17:46:27.353Z,21.73
2022-12-18T17:49:01.197Z,21.43
2022-12-18T17:51:28.622Z,18.17
2022-12-18T17:53:55.494Z,19.67
2022-12-18T17:56:24.584Z,18.77
2022-12-18T17:58:52.156Z,19.67
2022-12-18T18:01:21.661Z,18.07
2022-12-18T18:03:51.552Z,17.40
2022-12-18T18:06:20.922Z,21.33
2022-12-18T18:08:48.054Z,19.33
2022-12-18T18:11:35.510Z,19.17
2022-12-18T18:14:07.492Z,17.50
2022-12-18T18:16:46.038Z,18.43
2022-12-18T18:19:16.544Z,18.77
2022-12-18T18:21:45.641Z,19.33
2022-12-18T18:24:16.034Z,19.60
2022-12-18T18:26:43.036Z,19.03
2022-12-18T18:29:14.243Z,21.43
2022-12-18T18:31:41.911Z,20.38
2022-12-18T18:34:14.125Z,19.77
2022-12-18T18:36:40.890Z,20.60
2022-12-18T18:39:09.008Z,19.17
2022-12-18T18:41:37.217Z,19.93
2022-12-18T18:44:04.589Z,18.83
2022-12-18T18:46:31.412Z,20.67
2022-12-18T18:48:58.209Z,20.40
2022-12-18T18:51:26.188Z,18.40
2022-12-18T18:53:55.580Z,19.30
2022-12-18T18:59:11.316Z,20.57
2022-12-18T19:01:38.188Z,19.67
2022-12-18T19:04:05.140Z,18.00
2022-12-18T19:06:32.078Z,20.17
2022-12-18T19:09:04.259Z,18.70
2022-12-18T19:11:49.667Z,20.53
2022-12-18T19:14:17.966Z,18.70
2022-12-18T19:16:45.538Z,20.67
2022-12-18T19:19:13.346Z,20.27
2022-12-18T19:21:41.405Z,20.70
2022-12-18T19:24:09.887Z,22.40
2022-12-18T19:26:40.335Z,23.00
2022-12-18T19:29:08.980Z,21.77
2022-12-18T19:31:37.358Z,20.03
2022-12-18T19:34:08.865Z,22.83
2022-12-18T19:36:37.673Z,21.07
2022-12-18T19:39:13.572Z,20.60
2022-12-18T19:41:41.165Z,18.73
2022-12-18T19:44:11.803Z,20.87
2022-12-18T19:46:41.638Z,20.70
2022-12-18T19:49:10.760Z,21.07
2022-12-18T19:51:38.331Z,21.23
2022-12-18T19:54:05.364Z,20.57
2022-12-18T19:56:34.275Z,22.90
2022-12-18T19:59:02.669Z,22.03
2022-12-18T20:01:30.787Z,21.87
2022-12-18T20:03:58.401Z,22.37
2022-12-18T20:06:37.976Z,21.97
2022-12-18T20:09:06.629Z,20.60
2022-12-18T20:11:38.857Z,22.70
2022-12-18T20:14:10.119Z,21.27
2022-12-18T20:16:36.984Z,22.03
2022-12-18T20:19:04.272Z,22.87
2022-12-18T20:21:31.613Z,25.60
2022-12-18T20:23:59.936Z,22.03
2022-12-18T20:26:26.819Z,21.43
2022-12-18T20:28:54.771Z,23.57
2022-12-18T20:31:22.488Z,23.33
2022-12-18T20:33:50.944Z,24.17
2022-12-18T20:36:22.480Z,24.00
2022-12-18T20:38:55.295Z,22.23
2022-12-18T20:41:24.259Z,22.83
2022-12-18T20:43:50.999Z,23.00
2022-12-18T20:46:18.004Z,21.50
2022-12-18T20:48:45.096Z,22.37
2022-12-18T20:51:15.237Z,23.60
2022-12-18T20:53:42.714Z,23.60
2022-12-18T20:56:21.297Z,23.40
2022-12-18T20:58:49.712Z,21.27
2022-12-18T21:01:19.273Z,22.70
2022-12-18T21:03:47.112Z,22.43
2022-12-18T21:06:16.020Z,21.37
2022-12-18T21:08:43.175Z,23.17
2022-12-18T21:11:32.738Z,22.10
2022-12-18T21:14:00.081Z,21.07
2022-12-18T21:16:26.958Z,22.73
2022-12-18T21:18:54.526Z,22.93
2022-12-18T21:21:26.559Z,22.27
2022-12-18T21:23:54.519Z,24.03
2022-12-18T21:26:24.790Z,20.83
2022-12-18T21:28:56.630Z,23.23
2022-12-18T21:31:25.428Z,20.47
2022-12-18T21:33:53.139Z,22.43
2022-12-18T21:36:30.211Z,20.33
2022-12-18T21:38:57.685Z,22.57
2022-12-18T21:41:44.823Z,22.73
2022-12-18T21:44:14.227Z,22.53
2022-12-18T21:46:44.137Z,23.73
2022-12-18T21:49:14.528Z,20.77
2022-12-18T21:51:41.453Z,22.57
2022-12-18T21:54:08.207Z,19.93
2022-12-18T21:56:53.088Z,21.50
2022-12-18T21:59:25.483Z,21.73
2022-12-18T22:01:53.919Z,21.58
2022-12-18T22:04:21.887Z,22.33
2022-12-18T22:06:50.068Z,22.40
2022-12-18T22:09:19.271Z,20.73
2022-12-18T22:11:46.683Z,20.40
2022-12-18T22:14:15.241Z,21.03
2022-12-18T22:16:43.144Z,20.27
2022-12-18T22:19:11.905Z,21.00
2022-12-18T22:21:41.170Z,19.70
2022-12-18T22:24:15.408Z,21.33
2022-12-18T22:26:43.100Z,21.43
2022-12-18T22:29:39.721Z,21.77
2022-12-18T22:32:09.101Z,20.50
2022-12-18T22:34:38.607Z,19.63
2022-12-18T22:37:05.949Z,20.50
2022-12-18T22:39:32.751Z,19.90
2022-12-18T22:41:59.597Z,19.73
2022-12-18T22:44:26.499Z,20.40
2022-12-18T22:47:05.710Z,20.33
2022-12-18T22:49:34.854Z,19.53
2022-12-18T22:52:03.361Z,19.93
2022-12-18T22:54:30.132Z,21.40
2022-12-18T22:56:57.251Z,19.93
2022-12-18T22:59:24.477Z,20.37
2022-12-18T23:01:54.189Z,20.27
2022-12-18T23:04:35.873Z,19.60
2022-12-18T23:07:05.323Z,20.03
2022-12-18T23:09:32.483Z,20.13
2022-12-18T23:11:59.290Z,19.23
2022-12-18T23:14:26.283Z,20.53
2022-12-18T23:16:53.352Z,19.90
2022-12-18T23:19:20.926Z,20.17
2022-12-18T23:21:50.447Z,19.40
2022-12-18T23:24:17.224Z,19.40
2022-12-18T23:26:44.046Z,21.20
2022-12-18T23:29:10.782Z,18.27
2022-12-18T23:31:39.461Z,19.73
2022-12-18T23:34:07.008Z,19.23
2022-12-18T23:36:40.295Z,20.13
2022-12-18T23:39:24.344Z,20.27
2022-12-18T23:44:26.532Z,18.00
2022-12-18T23:46:53.477Z,19.97
2022-12-18T23:49:20.635Z,19.70
2022-12-18T23:51:47.406Z,19.97
2022-12-18T23:54:14.434Z,18.63
2022-12-18T23:56:41.239Z,20.23
2022-12-18T23:59:08.004Z,20.53
